sensor_id;sensor_type;location;lat;lon;timestamp;P1;durP1;ratioP1;P2;durP2;ratioP2
13230;SDS011;6681;53.254;10.398;2022-09-09T00:00:17;14.73;;;11.87;;
13230;SDS011;6681;53.254;10.398;2022-09-09T00:02:45;15.57;;;13.23;;
13230;SDS011;6681;53.254;10.398;2022-09-09T00:05:33;14.63;;;12.23;;
13230;SDS011;6681;53.254;10.398;2022-09-09T00:08:07;13.73;;;12.30;;
13230;SDS011;6681;53.254;10.398;2022-09-09T00:10:43;12.77;;;10.53;;
13230;SDS011;6681;53.254;10.398;2022-09-09T00:18:50;12.93;;;11.53;;
13230;SDS011;6681;53.254;10.398;2022-09-09T00:23:58;14.40;;;12.93;;
13230;SDS011;6681;53.254;10.398;2022-09-09T00:26:36;14.83;;;12.80;;
13230;SDS011;6681;53.254;10.398;2022-09-09T00:31:39;13.50;;;12.10;;
13230;SDS011;6681;53.254;10.398;2022-09-09T00:34:09;12.20;;;10.90;;
13230;SDS011;6681;53.254;10.398;2022-09-09T00:36:41;13.70;;;12.20;;
13230;SDS011;6681;53.254;10.398;2022-09-09T00:39:51;11.43;;;10.27;;
13230;SDS011;6681;53.254;10.398;2022-09-09T00:44:36;10.77;;;9.67;;
13230;SDS011;6681;53.254;10.398;2022-09-09T00:57:27;12.97;;;11.23;;
13230;SDS011;6681;53.254;10.398;2022-09-09T01:05:45;17.27;;;11.20;;
13230;SDS011;6681;53.254;10.398;2022-09-09T01:11:03;63.80;;;14.87;;
13230;SDS011;6681;53.254;10.398;2022-09-09T01:13:30;18.80;;;11.83;;
13230;SDS011;6681;53.254;10.398;2022-09-09T01:15:59;11.80;;;10.17;;
13230;SDS011;6681;53.254;10.398;2022-09-09T01:18:34;29.60;;;12.03;;
13230;SDS011;6681;53.254;10.398;2022-09-09T01:26:59;21.00;;;11.07;;
13230;SDS011;6681;53.254;10.398;2022-09-09T01:29:27;20.30;;;12.17;;
13230;SDS011;6681;53.254;10.398;2022-09-09T01:34:21;10.63;;;9.57;;
13230;SDS011;6681;53.254;10.398;2022-09-09T01:36:55;11.13;;;9.93;;
13230;SDS011;6681;53.254;10.398;2022-09-09T01:39:26;21.77;;;12.80;;
13230;SDS011;6681;53.254;10.398;2022-09-09T01:41:52;17.30;;;11.67;;
13230;SDS011;6681;53.254;10.398;2022-09-09T01:44:18;13.33;;;11.03;;
13230;SDS011;6681;53.254;10.398;2022-09-09T01:46:45;14.23;;;10.70;;
13230;SDS011;6681;53.254;10.398;2022-09-09T01:49:10;16.23;;;11.27;;
13230;SDS011;6681;53.254;10.398;2022-09-09T01:51:36;17.20;;;11.07;;
13230;SDS011;6681;53.254;10.398;2022-09-09T01:54:04;12.73;;;9.93;;
13230;SDS011;6681;53.254;10.398;2022-09-09T01:56:50;17.50;;;11.83;;
13230;SDS011;6681;53.254;10.398;2022-09-09T01:59:31;14.27;;;11.67;;
13230;SDS011;6681;53.254;10.398;2022-09-09T02:02:19;12.40;;;10.13;;
13230;SDS011;6681;53.254;10.398;2022-09-09T02:04:57;14.03;;;10.60;;
13230;SDS011;6681;53.254;10.398;2022-09-09T02:07:48;12.10;;;10.90;;
13230;SDS011;6681;53.254;10.398;2022-09-09T02:10:21;9.30;;;8.33;;
13230;SDS011;6681;53.254;10.398;2022-09-09T02:13:02;14.37;;;9.83;;
13230;SDS011;6681;53.254;10.398;2022-09-09T02:18:35;11.07;;;9.87;;
13230;SDS011;6681;53.254;10.398;2022-09-09T02:21:15;10.70;;;9.60;;
13230;SDS011;6681;53.254;10.398;2022-09-09T02:23:42;8.27;;;7.47;;
13230;SDS011;6681;53.254;10.398;2022-09-09T02:26:12;11.63;;;8.67;;
13230;SDS011;6681;53.254;10.398;2022-09-09T02:28:44;12.93;;;10.60;;
13230;SDS011;6681;53.254;10.398;2022-09-09T02:31:12;11.03;;;9.47;;
13230;SDS011;6681;53.254;10.398;2022-09-09T02:33:43;10.30;;;8.80;;
13230;SDS011;6681;53.254;10.398;2022-09-09T02:36:12;11.00;;;9.90;;
13230;SDS011;6681;53.254;10.398;2022-09-09T02:38:42;9.73;;;8.83;;
13230;SDS011;6681;53.254;10.398;2022-09-09T02:41:15;10.93;;;8.83;;
13230;SDS011;6681;53.254;10.398;2022-09-09T02:43:49;11.33;;;8.30;;
13230;SDS011;6681;53.254;10.398;2022-09-09T02:46:27;10.13;;;8.17;;
13230;SDS011;6681;53.254;10.398;2022-09-09T02:49:01;9.43;;;8.47;;
13230;SDS011;6681;53.254;10.398;2022-09-09T02:54:34;9.33;;;8.43;;
13230;SDS011;6681;53.254;10.398;2022-09-09T02:59:35;10.13;;;9.13;;
13230;SDS011;6681;53.254;10.398;2022-09-09T03:02:01;9.70;;;8.63;;
13230;SDS011;6681;53.254;10.398;2022-09-09T03:04:27;10.47;;;8.37;;
13230;SDS011;6681;53.254;10.398;2022-09-09T03:06:53;8.67;;;7.77;;
13230;SDS011;6681;53.254;10.398;2022-09-09T03:09:18;10.40;;;9.33;;
13230;SDS011;6681;53.254;10.398;2022-09-09T03:11:44;9.10;;;7.80;;
13230;SDS011;6681;53.254;10.398;2022-09-09T03:14:10;9.47;;;8.17;;
13230;SDS011;6681;53.254;10.398;2022-09-09T03:16:36;8.80;;;7.47;;
13230;SDS011;6681;53.254;10.398;2022-09-09T03:19:02;8.57;;;7.53;;
13230;SDS011;6681;53.254;10.398;2022-09-09T03:21:28;11.10;;;9.20;;
13230;SDS011;6681;53.254;10.398;2022-09-09T03:23:53;9.47;;;8.53;;
13230;SDS011;6681;53.254;10.398;2022-09-09T03:26:19;9.07;;;8.20;;
13230;SDS011;6681;53.254;10.398;2022-09-09T03:28:45;10.30;;;9.30;;
13230;SDS011;6681;53.254;10.398;2022-09-09T03:31:11;9.30;;;8.20;;
13230;SDS011;6681;53.254;10.398;2022-09-09T03:33:37;9.00;;;8.13;;
13230;SDS011;6681;53.254;10.398;2022-09-09T03:36:03;10.33;;;8.57;;
13230;SDS011;6681;53.254;10.398;2022-09-09T03:38:29;11.20;;;9.17;;
13230;SDS011;6681;53.254;10.398;2022-09-09T03:40:56;10.13;;;9.03;;
13230;SDS011;6681;53.254;10.398;2022-09-09T03:43:25;10.53;;;8.67;;
13230;SDS011;6681;53.254;10.398;2022-09-09T03:45:51;8.03;;;7.33;;
13230;SDS011;6681;53.254;10.398;2022-09-09T03:48:18;9.07;;;7.23;;
13230;SDS011;6681;53.254;10.398;2022-09-09T03:50:48;7.53;;;6.90;;
13230;SDS011;6681;53.254;10.398;2022-09-09T03:53:15;9.20;;;8.30;;
13230;SDS011;6681;53.254;10.398;2022-09-09T03:55:51;8.27;;;7.43;;
13230;SDS011;6681;53.254;10.398;2022-09-09T03:58:20;9.63;;;8.73;;
13230;SDS011;6681;53.254;10.398;2022-09-09T04:00:57;10.37;;;9.20;;
13230;SDS011;6681;53.254;10.398;2022-09-09T04:03:27;8.50;;;7.67;;
13230;SDS011;6681;53.254;10.398;2022-09-09T04:05:54;8.80;;;7.73;;
13230;SDS011;6681;53.254;10.398;2022-09-09T04:08:21;8.83;;;7.90;;
13230;SDS011;6681;53.254;10.398;2022-09-09T04:10:47;11.90;;;8.47;;
13230;SDS011;6681;53.254;10.398;2022-09-09T04:13:14;8.03;;;7.13;;
13230;SDS011;6681;53.254;10.398;2022-09-09T04:15:42;8.87;;;7.37;;
13230;SDS011;6681;53.254;10.398;2022-09-09T04:18:09;8.43;;;7.50;;
13230;SDS011;6681;53.254;10.398;2022-09-09T04:20:34;8.97;;;8.07;;
13230;SDS011;6681;53.254;10.398;2022-09-09T04:23:00;9.17;;;8.37;;
13230;SDS011;6681;53.254;10.398;2022-09-09T04:25:26;9.33;;;8.43;;
13230;SDS011;6681;53.254;10.398;2022-09-09T04:27:55;9.30;;;7.70;;
13230;SDS011;6681;53.254;10.398;2022-09-09T04:30:22;9.50;;;6.87;;
13230;SDS011;6681;53.254;10.398;2022-09-09T04:32:48;10.47;;;7.03;;
13230;SDS011;6681;53.254;10.398;2022-09-09T04:35:14;10.63;;;7.73;;
13230;SDS011;6681;53.254;10.398;2022-09-09T04:37:40;8.23;;;6.53;;
13230;SDS011;6681;53.254;10.398;2022-09-09T04:40:06;7.60;;;6.50;;
13230;SDS011;6681;53.254;10.398;2022-09-09T04:42:37;10.17;;;8.20;;
13230;SDS011;6681;53.254;10.398;2022-09-09T04:45:04;8.87;;;8.00;;
13230;SDS011;6681;53.254;10.398;2022-09-09T04:47:31;8.60;;;7.80;;
13230;SDS011;6681;53.254;10.398;2022-09-09T04:49:57;8.87;;;7.07;;
13230;SDS011;6681;53.254;10.398;2022-09-09T04:52:24;8.13;;;7.03;;
13230;SDS011;6681;53.254;10.398;2022-09-09T04:54:49;8.87;;;7.33;;
13230;SDS011;6681;53.254;10.398;2022-09-09T04:57:15;8.17;;;6.33;;
13230;SDS011;6681;53.254;10.398;2022-09-09T04:59:40;7.10;;;6.00;;
13230;SDS011;6681;53.254;10.398;2022-09-09T05:02:06;8.10;;;6.57;;
13230;SDS011;6681;53.254;10.398;2022-09-09T05:04:32;7.60;;;6.80;;
13230;SDS011;6681;53.254;10.398;2022-09-09T05:06:58;7.60;;;6.83;;
13230;SDS011;6681;53.254;10.398;2022-09-09T05:09:24;6.30;;;5.73;;
13230;SDS011;6681;53.254;10.398;2022-09-09T05:11:50;7.20;;;5.00;;
13230;SDS011;6681;53.254;10.398;2022-09-09T05:14:16;7.23;;;6.17;;
13230;SDS011;6681;53.254;10.398;2022-09-09T05:16:42;6.67;;;6.07;;
13230;SDS011;6681;53.254;10.398;2022-09-09T05:19:10;8.27;;;6.40;;
13230;SDS011;6681;53.254;10.398;2022-09-09T05:21:36;7.73;;;5.73;;
13230;SDS011;6681;53.254;10.398;2022-09-09T05:24:02;11.43;;;6.53;;
13230;SDS011;6681;53.254;10.398;2022-09-09T05:26:28;6.83;;;5.93;;
13230;SDS011;6681;53.254;10.398;2022-09-09T05:28:57;5.10;;;4.67;;
13230;SDS011;6681;53.254;10.398;2022-09-09T05:31:25;6.30;;;5.63;;
13230;SDS011;6681;53.254;10.398;2022-09-09T05:33:53;5.57;;;5.17;;
13230;SDS011;6681;53.254;10.398;2022-09-09T05:36:20;5.27;;;4.63;;
13230;SDS011;6681;53.254;10.398;2022-09-09T05:38:46;4.43;;;4.03;;
13230;SDS011;6681;53.254;10.398;2022-09-09T05:41:13;5.67;;;4.60;;
13230;SDS011;6681;53.254;10.398;2022-09-09T05:43:42;4.47;;;4.03;;
13230;SDS011;6681;53.254;10.398;2022-09-09T05:46:16;8.17;;;5.03;;
13230;SDS011;6681;53.254;10.398;2022-09-09T05:48:43;7.77;;;5.87;;
13230;SDS011;6681;53.254;10.398;2022-09-09T05:51:16;5.53;;;5.03;;
13230;SDS011;6681;53.254;10.398;2022-09-09T05:53:46;4.70;;;4.30;;
13230;SDS011;6681;53.254;10.398;2022-09-09T05:58:40;3.47;;;3.17;;
13230;SDS011;6681;53.254;10.398;2022-09-09T06:01:12;5.10;;;3.60;;
13230;SDS011;6681;53.254;10.398;2022-09-09T06:03:40;3.07;;;2.87;;
13230;SDS011;6681;53.254;10.398;2022-09-09T06:06:08;3.57;;;3.27;;
13230;SDS011;6681;53.254;10.398;2022-09-09T06:08:40;3.07;;;2.80;;
13230;SDS011;6681;53.254;10.398;2022-09-09T06:11:08;5.37;;;4.10;;
13230;SDS011;6681;53.254;10.398;2022-09-09T06:13:35;2.93;;;2.73;;
13230;SDS011;6681;53.254;10.398;2022-09-09T06:16:03;3.73;;;3.37;;
13230;SDS011;6681;53.254;10.398;2022-09-09T06:18:40;3.43;;;3.10;;
13230;SDS011;6681;53.254;10.398;2022-09-09T06:21:08;2.87;;;2.50;;
13230;SDS011;6681;53.254;10.398;2022-09-09T06:23:40;6.33;;;2.83;;
13230;SDS011;6681;53.254;10.398;2022-09-09T06:26:12;3.57;;;2.90;;
13230;SDS011;6681;53.254;10.398;2022-09-09T06:28:41;3.93;;;3.43;;
13230;SDS011;6681;53.254;10.398;2022-09-09T06:31:08;3.80;;;3.30;;
13230;SDS011;6681;53.254;10.398;2022-09-09T06:33:37;6.77;;;3.07;;
13230;SDS011;6681;53.254;10.398;2022-09-09T06:36:06;2.30;;;2.10;;
13230;SDS011;6681;53.254;10.398;2022-09-09T06:38:37;3.63;;;3.33;;
13230;SDS011;6681;53.254;10.398;2022-09-09T06:41:02;4.03;;;2.67;;
13230;SDS011;6681;53.254;10.398;2022-09-09T06:43:30;5.67;;;1.83;;
13230;SDS011;6681;53.254;10.398;2022-09-09T06:46:10;3.87;;;2.40;;
13230;SDS011;6681;53.254;10.398;2022-09-09T06:48:41;2.20;;;2.10;;
13230;SDS011;6681;53.254;10.398;2022-09-09T06:53:43;2.23;;;2.03;;
13230;SDS011;6681;53.254;10.398;2022-09-09T06:58:35;4.10;;;2.40;;
13230;SDS011;6681;53.254;10.398;2022-09-09T07:01:06;3.80;;;3.10;;
13230;SDS011;6681;53.254;10.398;2022-09-09T07:03:31;4.10;;;3.27;;
13230;SDS011;6681;53.254;10.398;2022-09-09T07:05:58;3.20;;;2.90;;
13230;SDS011;6681;53.254;10.398;2022-09-09T07:08:24;3.97;;;2.93;;
13230;SDS011;6681;53.254;10.398;2022-09-09T07:10:51;3.57;;;3.17;;
13230;SDS011;6681;53.254;10.398;2022-09-09T07:13:24;3.87;;;3.13;;
13230;SDS011;6681;53.254;10.398;2022-09-09T07:15:50;8.73;;;2.60;;
13230;SDS011;6681;53.254;10.398;2022-09-09T07:18:17;2.57;;;2.37;;
13230;SDS011;6681;53.254;10.398;2022-09-09T07:20:52;4.40;;;3.13;;
13230;SDS011;6681;53.254;10.398;2022-09-09T07:23:19;3.80;;;2.93;;
13230;SDS011;6681;53.254;10.398;2022-09-09T07:25:45;3.50;;;2.90;;
13230;SDS011;6681;53.254;10.398;2022-09-09T07:28:10;4.97;;;3.13;;
13230;SDS011;6681;53.254;10.398;2022-09-09T07:30:36;5.80;;;2.17;;
13230;SDS011;6681;53.254;10.398;2022-09-09T07:33:02;5.43;;;3.33;;
13230;SDS011;6681;53.254;10.398;2022-09-09T07:35:28;4.30;;;2.83;;
13230;SDS011;6681;53.254;10.398;2022-09-09T07:37:54;3.20;;;2.60;;
13230;SDS011;6681;53.254;10.398;2022-09-09T07:40:19;10.63;;;2.70;;
13230;SDS011;6681;53.254;10.398;2022-09-09T07:42:46;10.83;;;2.77;;
13230;SDS011;6681;53.254;10.398;2022-09-09T07:45:12;7.97;;;2.93;;
13230;SDS011;6681;53.254;10.398;2022-09-09T07:47:39;1.87;;;1.77;;
13230;SDS011;6681;53.254;10.398;2022-09-09T07:50:07;3.27;;;2.37;;
13230;SDS011;6681;53.254;10.398;2022-09-09T07:52:34;3.73;;;2.23;;
13230;SDS011;6681;53.254;10.398;2022-09-09T07:55:00;3.63;;;2.40;;
13230;SDS011;6681;53.254;10.398;2022-09-09T07:57:27;2.63;;;2.43;;
13230;SDS011;6681;53.254;10.398;2022-09-09T07:59:55;3.93;;;2.83;;
13230;SDS011;6681;53.254;10.398;2022-09-09T08:02:21;3.10;;;2.80;;
13230;SDS011;6681;53.254;10.398;2022-09-09T08:04:48;4.70;;;2.70;;
13230;SDS011;6681;53.254;10.398;2022-09-09T08:07:13;3.10;;;2.50;;
13230;SDS011;6681;53.254;10.398;2022-09-09T08:09:39;7.70;;;2.80;;
13230;SDS011;6681;53.254;10.398;2022-09-09T08:12:05;6.23;;;2.57;;
13230;SDS011;6681;53.254;10.398;2022-09-09T08:14:31;4.50;;;2.93;;
13230;SDS011;6681;53.254;10.398;2022-09-09T08:16:57;5.57;;;2.60;;
13230;SDS011;6681;53.254;10.398;2022-09-09T08:19:23;4.73;;;2.97;;
13230;SDS011;6681;53.254;10.398;2022-09-09T08:21:48;4.23;;;3.30;;
13230;SDS011;6681;53.254;10.398;2022-09-09T08:24:14;2.57;;;2.37;;
13230;SDS011;6681;53.254;10.398;2022-09-09T08:26:44;6.67;;;2.87;;
13230;SDS011;6681;53.254;10.398;2022-09-09T08:29:12;6.17;;;2.53;;
13230;SDS011;6681;53.254;10.398;2022-09-09T08:31:49;3.10;;;2.90;;
13230;SDS011;6681;53.254;10.398;2022-09-09T08:34:17;5.03;;;3.57;;
13230;SDS011;6681;53.254;10.398;2022-09-09T08:36:46;3.33;;;2.23;;
13230;SDS011;6681;53.254;10.398;2022-09-09T08:39:14;2.77;;;2.10;;
13230;SDS011;6681;53.254;10.398;2022-09-09T08:52:30;3.30;;;1.93;;
13230;SDS011;6681;53.254;10.398;2022-09-09T08:55:16;2.20;;;2.00;;
13230;SDS011;6681;53.254;10.398;2022-09-09T08:57:58;2.77;;;2.17;;
13230;SDS011;6681;53.254;10.398;2022-09-09T09:00:33;2.70;;;2.50;;
13230;SDS011;6681;53.254;10.398;2022-09-09T09:11:34;3.70;;;2.27;;
13230;SDS011;6681;53.254;10.398;2022-09-09T09:14:25;5.90;;;2.20;;
13230;SDS011;6681;53.254;10.398;2022-09-09T09:17:00;4.10;;;2.20;;
13230;SDS011;6681;53.254;10.398;2022-09-09T09:19:28;9.40;;;4.80;;
13230;SDS011;6681;53.254;10.398;2022-09-09T09:22:09;4.47;;;2.80;;
13230;SDS011;6681;53.254;10.398;2022-09-09T09:25:11;8.20;;;2.53;;
13230;SDS011;6681;53.254;10.398;2022-09-09T09:28:02;2.13;;;1.83;;
13230;SDS011;6681;53.254;10.398;2022-09-09T09:30:34;2.83;;;2.47;;
13230;SDS011;6681;53.254;10.398;2022-09-09T09:33:17;3.90;;;2.23;;
13230;SDS011;6681;53.254;10.398;2022-09-09T09:35:55;2.20;;;1.90;;
13230;SDS011;6681;53.254;10.398;2022-09-09T09:38:22;3.80;;;2.60;;
13230;SDS011;6681;53.254;10.398;2022-09-09T09:40:53;4.10;;;2.50;;
13230;SDS011;6681;53.254;10.398;2022-09-09T09:43:24;2.30;;;2.20;;
13230;SDS011;6681;53.254;10.398;2022-09-09T09:45:54;3.93;;;2.77;;
13230;SDS011;6681;53.254;10.398;2022-09-09T09:48:22;1.53;;;1.30;;
13230;SDS011;6681;53.254;10.398;2022-09-09T09:53:18;3.17;;;1.83;;
13230;SDS011;6681;53.254;10.398;2022-09-09T09:55:55;2.43;;;1.77;;
13230;SDS011;6681;53.254;10.398;2022-09-09T09:58:26;2.37;;;2.17;;
13230;SDS011;6681;53.254;10.398;2022-09-09T10:00:57;4.63;;;2.03;;
13230;SDS011;6681;53.254;10.398;2022-09-09T10:03:30;2.23;;;1.50;;
13230;SDS011;6681;53.254;10.398;2022-09-09T10:05:57;2.70;;;1.80;;
13230;SDS011;6681;53.254;10.398;2022-09-09T10:08:24;5.20;;;1.53;;
13230;SDS011;6681;53.254;10.398;2022-09-09T10:16:14;1.30;;;1.13;;
13230;SDS011;6681;53.254;10.398;2022-09-09T10:42:36;4.30;;;2.10;;
13230;SDS011;6681;53.254;10.398;2022-09-09T10:53:39;3.23;;;1.90;;
13230;SDS011;6681;53.254;10.398;2022-09-09T10:56:07;1.97;;;1.30;;
13230;SDS011;6681;53.254;10.398;2022-09-09T10:58:40;1.77;;;1.10;;
13230;SDS011;6681;53.254;10.398;2022-09-09T11:01:20;3.33;;;1.40;;
13230;SDS011;6681;53.254;10.398;2022-09-09T11:03:49;2.97;;;1.63;;
13230;SDS011;6681;53.254;10.398;2022-09-09T11:06:33;5.60;;;1.50;;
13230;SDS011;6681;53.254;10.398;2022-09-09T11:09:04;1.03;;;0.90;;
13230;SDS011;6681;53.254;10.398;2022-09-09T11:11:36;3.20;;;0.60;;
13230;SDS011;6681;53.254;10.398;2022-09-09T11:16:40;1.47;;;0.87;;
13230;SDS011;6681;53.254;10.398;2022-09-09T11:19:34;2.50;;;1.57;;
13230;SDS011;6681;53.254;10.398;2022-09-09T11:22:07;0.90;;;0.70;;
13230;SDS011;6681;53.254;10.398;2022-09-09T11:38:45;3.07;;;1.23;;
13230;SDS011;6681;53.254;10.398;2022-09-09T11:41:12;0.93;;;0.90;;
13230;SDS011;6681;53.254;10.398;2022-09-09T11:43:46;1.70;;;0.90;;
13230;SDS011;6681;53.254;10.398;2022-09-09T11:46:16;0.87;;;0.70;;
13230;SDS011;6681;53.254;10.398;2022-09-09T11:49:00;2.80;;;1.17;;
13230;SDS011;6681;53.254;10.398;2022-09-09T11:51:28;4.77;;;1.53;;
13230;SDS011;6681;53.254;10.398;2022-09-09T11:53:59;4.83;;;1.60;;
13230;SDS011;6681;53.254;10.398;2022-09-09T11:56:31;5.63;;;1.83;;
13230;SDS011;6681;53.254;10.398;2022-09-09T12:01:55;2.33;;;1.50;;
13230;SDS011;6681;53.254;10.398;2022-09-09T12:10:04;3.97;;;2.43;;
13230;SDS011;6681;53.254;10.398;2022-09-09T12:12:34;1.97;;;1.43;;
13230;SDS011;6681;53.254;10.398;2022-09-09T12:17:42;2.20;;;1.47;;
13230;SDS011;6681;53.254;10.398;2022-09-09T12:22:43;5.77;;;2.03;;
13230;SDS011;6681;53.254;10.398;2022-09-09T12:28:25;1.50;;;1.33;;
13230;SDS011;6681;53.254;10.398;2022-09-09T12:31:07;2.73;;;1.77;;
13230;SDS011;6681;53.254;10.398;2022-09-09T12:33:43;5.13;;;2.47;;
13230;SDS011;6681;53.254;10.398;2022-09-09T12:36:18;1.60;;;1.20;;
13230;SDS011;6681;53.254;10.398;2022-09-09T12:38:48;6.07;;;2.63;;
13230;SDS011;6681;53.254;10.398;2022-09-09T12:41:25;3.27;;;1.43;;
13230;SDS011;6681;53.254;10.398;2022-09-09T12:44:02;3.33;;;1.17;;
13230;SDS011;6681;53.254;10.398;2022-09-09T12:46:41;1.90;;;1.20;;
13230;SDS011;6681;53.254;10.398;2022-09-09T12:52:06;3.33;;;2.37;;
13230;SDS011;6681;53.254;10.398;2022-09-09T12:54:44;4.13;;;1.50;;
13230;SDS011;6681;53.254;10.398;2022-09-09T12:57:16;3.03;;;1.33;;
13230;SDS011;6681;53.254;10.398;2022-09-09T12:59:42;2.87;;;1.07;;
13230;SDS011;6681;53.254;10.398;2022-09-09T13:02:20;4.07;;;1.63;;
13230;SDS011;6681;53.254;10.398;2022-09-09T13:04:47;2.20;;;2.00;;
13230;SDS011;6681;53.254;10.398;2022-09-09T13:07:15;1.50;;;1.40;;
13230;SDS011;6681;53.254;10.398;2022-09-09T13:09:42;3.40;;;2.10;;
13230;SDS011;6681;53.254;10.398;2022-09-09T13:12:16;3.40;;;1.23;;
13230;SDS011;6681;53.254;10.398;2022-09-09T13:14:52;2.33;;;1.73;;
13230;SDS011;6681;53.254;10.398;2022-09-09T13:17:21;4.07;;;1.20;;
13230;SDS011;6681;53.254;10.398;2022-09-09T13:19:53;6.57;;;1.97;;
13230;SDS011;6681;53.254;10.398;2022-09-09T13:22:36;2.17;;;1.70;;
13230;SDS011;6681;53.254;10.398;2022-09-09T13:25:05;9.93;;;2.93;;
13230;SDS011;6681;53.254;10.398;2022-09-09T13:27:36;6.50;;;1.90;;
13230;SDS011;6681;53.254;10.398;2022-09-09T13:38:21;2.97;;;1.87;;
13230;SDS011;6681;53.254;10.398;2022-09-09T13:40:57;6.37;;;3.00;;
13230;SDS011;6681;53.254;10.398;2022-09-09T13:43:35;5.77;;;1.60;;
13230;SDS011;6681;53.254;10.398;2022-09-09T13:46:04;4.07;;;2.13;;
13230;SDS011;6681;53.254;10.398;2022-09-09T13:48:53;2.73;;;2.37;;
13230;SDS011;6681;53.254;10.398;2022-09-09T13:51:34;2.53;;;1.50;;
13230;SDS011;6681;53.254;10.398;2022-09-09T13:54:05;2.40;;;1.57;;
13230;SDS011;6681;53.254;10.398;2022-09-09T13:56:35;2.80;;;1.20;;
13230;SDS011;6681;53.254;10.398;2022-09-09T13:59:03;2.40;;;2.00;;
13230;SDS011;6681;53.254;10.398;2022-09-09T14:01:30;2.80;;;1.73;;
13230;SDS011;6681;53.254;10.398;2022-09-09T14:03:56;2.50;;;1.00;;
13230;SDS011;6681;53.254;10.398;2022-09-09T14:06:21;2.70;;;1.37;;
13230;SDS011;6681;53.254;10.398;2022-09-09T14:08:50;1.20;;;1.00;;
13230;SDS011;6681;53.254;10.398;2022-09-09T14:11:16;1.73;;;0.77;;
13230;SDS011;6681;53.254;10.398;2022-09-09T14:13:43;1.20;;;1.10;;
13230;SDS011;6681;53.254;10.398;2022-09-09T14:16:08;1.47;;;1.13;;
13230;SDS011;6681;53.254;10.398;2022-09-09T14:18:34;1.00;;;0.70;;
13230;SDS011;6681;53.254;10.398;2022-09-09T14:21:00;0.63;;;0.63;;
13230;SDS011;6681;53.254;10.398;2022-09-09T14:23:27;1.97;;;1.70;;
13230;SDS011;6681;53.254;10.398;2022-09-09T14:25:54;2.40;;;0.83;;
13230;SDS011;6681;53.254;10.398;2022-09-09T14:28:20;1.47;;;0.40;;
13230;SDS011;6681;53.254;10.398;2022-09-09T14:30:45;3.20;;;1.17;;
13230;SDS011;6681;53.254;10.398;2022-09-09T14:33:12;2.70;;;0.70;;
13230;SDS011;6681;53.254;10.398;2022-09-09T14:35:39;1.83;;;1.03;;
13230;SDS011;6681;53.254;10.398;2022-09-09T14:38:06;1.27;;;0.40;;
13230;SDS011;6681;53.254;10.398;2022-09-09T14:40:33;2.07;;;0.43;;
13230;SDS011;6681;53.254;10.398;2022-09-09T14:43:00;1.73;;;0.50;;
13230;SDS011;6681;53.254;10.398;2022-09-09T14:45:25;0.90;;;0.67;;
13230;SDS011;6681;53.254;10.398;2022-09-09T14:47:51;1.30;;;0.70;;
13230;SDS011;6681;53.254;10.398;2022-09-09T14:50:18;2.67;;;1.00;;
13230;SDS011;6681;53.254;10.398;2022-09-09T14:52:44;2.07;;;0.80;;
13230;SDS011;6681;53.254;10.398;2022-09-09T14:55:09;0.70;;;0.70;;
13230;SDS011;6681;53.254;10.398;2022-09-09T14:57:36;2.17;;;0.70;;
13230;SDS011;6681;53.254;10.398;2022-09-09T15:00:03;0.80;;;0.77;;
13230;SDS011;6681;53.254;10.398;2022-09-09T15:02:30;1.70;;;0.90;;
13230;SDS011;6681;53.254;10.398;2022-09-09T15:04:56;2.40;;;1.10;;
13230;SDS011;6681;53.254;10.398;2022-09-09T15:07:23;5.63;;;2.47;;
13230;SDS011;6681;53.254;10.398;2022-09-09T15:09:49;2.63;;;1.63;;
13230;SDS011;6681;53.254;10.398;2022-09-09T15:12:15;2.73;;;0.80;;
13230;SDS011;6681;53.254;10.398;2022-09-09T15:14:43;1.23;;;0.50;;
13230;SDS011;6681;53.254;10.398;2022-09-09T15:17:09;0.83;;;0.77;;
13230;SDS011;6681;53.254;10.398;2022-09-09T15:19:35;0.73;;;0.60;;
13230;SDS011;6681;53.254;10.398;2022-09-09T15:22:01;2.90;;;0.60;;
13230;SDS011;6681;53.254;10.398;2022-09-09T15:24:28;4.33;;;1.83;;
13230;SDS011;6681;53.254;10.398;2022-09-09T15:26:53;1.60;;;0.87;;
13230;SDS011;6681;53.254;10.398;2022-09-09T15:29:19;2.17;;;0.90;;
13230;SDS011;6681;53.254;10.398;2022-09-09T15:31:45;1.57;;;0.80;;
13230;SDS011;6681;53.254;10.398;2022-09-09T15:34:11;2.73;;;0.77;;
13230;SDS011;6681;53.254;10.398;2022-09-09T15:36:45;2.80;;;0.83;;
13230;SDS011;6681;53.254;10.398;2022-09-09T15:39:11;3.13;;;1.30;;
13230;SDS011;6681;53.254;10.398;2022-09-09T15:41:41;3.10;;;1.33;;
13230;SDS011;6681;53.254;10.398;2022-09-09T15:44:07;2.10;;;1.20;;
13230;SDS011;6681;53.254;10.398;2022-09-09T15:46:37;4.00;;;1.43;;
13230;SDS011;6681;53.254;10.398;2022-09-09T15:49:11;3.07;;;2.23;;
13230;SDS011;6681;53.254;10.398;2022-09-09T15:51:45;3.60;;;1.10;;
13230;SDS011;6681;53.254;10.398;2022-09-09T15:54:16;1.30;;;1.20;;
13230;SDS011;6681;53.254;10.398;2022-09-09T15:56:43;7.53;;;5.00;;
13230;SDS011;6681;53.254;10.398;2022-09-09T15:59:10;8.73;;;5.70;;
13230;SDS011;6681;53.254;10.398;2022-09-09T16:01:36;5.27;;;4.17;;
13230;SDS011;6681;53.254;10.398;2022-09-09T16:04:04;4.53;;;3.43;;
13230;SDS011;6681;53.254;10.398;2022-09-09T16:06:31;6.20;;;2.23;;
13230;SDS011;6681;53.254;10.398;2022-09-09T16:08:58;4.80;;;2.10;;
13230;SDS011;6681;53.254;10.398;2022-09-09T16:11:32;3.80;;;2.23;;
13230;SDS011;6681;53.254;10.398;2022-09-09T16:13:59;2.37;;;1.90;;
13230;SDS011;6681;53.254;10.398;2022-09-09T16:16:26;1.67;;;1.57;;
13230;SDS011;6681;53.254;10.398;2022-09-09T16:18:54;3.60;;;2.50;;
13230;SDS011;6681;53.254;10.398;2022-09-09T16:21:25;3.30;;;2.40;;
13230;SDS011;6681;53.254;10.398;2022-09-09T16:23:54;3.53;;;2.23;;
13230;SDS011;6681;53.254;10.398;2022-09-09T16:26:20;3.67;;;2.00;;
13230;SDS011;6681;53.254;10.398;2022-09-09T16:28:47;3.93;;;2.37;;
13230;SDS011;6681;53.254;10.398;2022-09-09T16:31:14;1.93;;;1.77;;
13230;SDS011;6681;53.254;10.398;2022-09-09T16:33:44;2.20;;;2.00;;
13230;SDS011;6681;53.254;10.398;2022-09-09T16:36:12;1.57;;;1.47;;
13230;SDS011;6681;53.254;10.398;2022-09-09T16:38:39;2.73;;;1.60;;
13230;SDS011;6681;53.254;10.398;2022-09-09T16:41:05;1.93;;;1.83;;
13230;SDS011;6681;53.254;10.398;2022-09-09T16:43:32;2.47;;;2.27;;
13230;SDS011;6681;53.254;10.398;2022-09-09T16:45:58;2.70;;;2.00;;
13230;SDS011;6681;53.254;10.398;2022-09-09T16:48:30;2.20;;;2.00;;
13230;SDS011;6681;53.254;10.398;2022-09-09T16:51:04;5.43;;;1.90;;
13230;SDS011;6681;53.254;10.398;2022-09-09T16:53:32;2.83;;;1.90;;
13230;SDS011;6681;53.254;10.398;2022-09-09T16:55:58;2.20;;;1.87;;
13230;SDS011;6681;53.254;10.398;2022-09-09T16:58:29;5.07;;;2.73;;
13230;SDS011;6681;53.254;10.398;2022-09-09T17:00:58;2.03;;;1.60;;
13230;SDS011;6681;53.254;10.398;2022-09-09T17:03:28;1.70;;;1.60;;
13230;SDS011;6681;53.254;10.398;2022-09-09T17:05:54;1.73;;;1.63;;
13230;SDS011;6681;53.254;10.398;2022-09-09T17:08:19;4.50;;;1.43;;
13230;SDS011;6681;53.254;10.398;2022-09-09T17:10:45;2.73;;;2.53;;
13230;SDS011;6681;53.254;10.398;2022-09-09T17:13:12;2.97;;;2.77;;
13230;SDS011;6681;53.254;10.398;2022-09-09T17:15:39;5.80;;;2.93;;
13230;SDS011;6681;53.254;10.398;2022-09-09T17:18:07;8.00;;;4.00;;
13230;SDS011;6681;53.254;10.398;2022-09-09T17:20:37;4.60;;;3.80;;
13230;SDS011;6681;53.254;10.398;2022-09-09T17:23:04;3.37;;;2.60;;
13230;SDS011;6681;53.254;10.398;2022-09-09T17:25:34;6.10;;;2.67;;
13230;SDS011;6681;53.254;10.398;2022-09-09T17:28:00;2.63;;;1.73;;
13230;SDS011;6681;53.254;10.398;2022-09-09T17:30:27;6.80;;;2.80;;
13230;SDS011;6681;53.254;10.398;2022-09-09T17:32:53;2.97;;;2.03;;
13230;SDS011;6681;53.254;10.398;2022-09-09T17:35:18;2.17;;;2.00;;
13230;SDS011;6681;53.254;10.398;2022-09-09T17:37:44;3.40;;;2.70;;